createdAt,value
2024-01-08T00:00:08.264Z,68.58
2024-01-08T00:01:08.304Z,68.63
2024-01-08T00:02:08.249Z,68.63
2024-01-08T00:03:08.286Z,68.51
2024-01-08T00:04:08.220Z,68.45
2024-01-08T00:05:08.216Z,68.42
2024-01-08T00:06:08.266Z,68.46
2024-01-08T00:07:08.177Z,68.28
2024-01-08T00:08:08.192Z,68.28
2024-01-08T00:09:08.144Z,68.48
2024-01-08T00:10:08.146Z,68.51
2024-01-08T00:11:08.237Z,68.62
2024-01-08T00:12:08.146Z,68.61
2024-01-08T00:13:08.162Z,68.60
2024-01-08T00:14:08.147Z,68.60
2024-01-08T00:15:08.120Z,68.53
2024-01-08T00:16:08.095Z,68.56
2024-01-08T00:17:08.103Z,68.58
2024-01-08T00:18:08.232Z,68.57
2024-01-08T00:19:08.149Z,68.53
2024-01-08T00:20:08.205Z,68.58
2024-01-08T00:21:08.268Z,68.64
2024-01-08T00:22:08.258Z,68.76
2024-01-08T00:23:08.313Z,68.80
2024-01-08T00:24:08.275Z,68.76
2024-01-08T00:25:08.314Z,68.61
2024-01-08T00:26:08.326Z,68.63
2024-01-08T00:27:08.322Z,68.65
2024-01-08T00:28:08.360Z,68.67
2024-01-08T00:29:08.441Z,68.61
2024-01-08T00:30:08.567Z,68.57
2024-01-08T00:31:08.546Z,68.67
2024-01-08T00:32:08.557Z,68.80
2024-01-08T00:33:08.649Z,68.73
2024-01-08T00:34:08.699Z,68.74
2024-01-08T00:35:08.653Z,68.98
2024-01-08T00:36:08.630Z,69.16
2024-01-08T00:37:08.700Z,69.15
2024-01-08T00:38:08.788Z,69.23
2024-01-08T00:39:08.807Z,69.38
2024-01-08T00:40:08.856Z,69.35
2024-01-08T00:41:08.901Z,69.39
2024-01-08T00:42:08.950Z,69.34
2024-01-08T00:43:09.280Z,69.32
2024-01-08T00:44:09.099Z,69.23
2024-01-08T00:45:09.322Z,69.18
2024-01-08T00:46:09.175Z,69.28
2024-01-08T00:47:09.236Z,69.37
2024-01-08T00:48:09.459Z,69.24
2024-01-08T00:49:09.298Z,69.07
2024-01-08T00:50:09.316Z,68.97
2024-01-08T00:51:09.279Z,69.01
2024-01-08T00:52:09.294Z,69.11
2024-01-08T00:53:09.352Z,69.15
2024-01-08T00:54:09.295Z,69.22
2024-01-08T00:55:09.309Z,69.26
2024-01-08T00:56:09.319Z,69.21
2024-01-08T00:57:09.311Z,69.26
2024-01-08T00:58:09.868Z,69.20
2024-01-08T00:59:09.342Z,69.20
2024-01-08T01:00:09.272Z,69.21
2024-01-08T01:01:09.309Z,69.21
2024-01-08T01:02:09.285Z,69.37
2024-01-08T01:03:09.377Z,69.32
2024-01-08T01:04:09.331Z,69.40
2024-01-08T01:05:09.392Z,69.46
2024-01-08T01:06:09.459Z,69.42
2024-01-08T01:07:09.290Z,69.28
2024-01-08T01:08:09.359Z,69.15
2024-01-08T01:09:09.305Z,69.20
2024-01-08T01:10:09.276Z,69.18
2024-01-08T01:11:09.348Z,69.19
2024-01-08T01:12:09.289Z,69.24
2024-01-08T01:13:09.272Z,69.31
2024-01-08T01:14:09.338Z,69.37
2024-01-08T01:15:09.277Z,69.13
2024-01-08T01:16:09.275Z,68.90
2024-01-08T01:17:09.299Z,68.98
2024-01-08T01:18:09.520Z,69.13
2024-01-08T01:19:09.492Z,69.16
2024-01-08T01:20:09.297Z,69.07
2024-01-08T01:21:09.221Z,68.91
2024-01-08T01:22:09.223Z,68.90
2024-01-08T01:23:09.252Z,68.81
2024-01-08T01:24:09.196Z,68.88
2024-01-08T01:25:09.186Z,68.60
2024-01-08T01:26:09.187Z,68.46
2024-01-08T01:27:09.158Z,68.37
2024-01-08T01:28:09.154Z,68.46
2024-01-08T01:29:09.160Z,68.51
2024-01-08T01:30:09.134Z,68.48
2024-01-08T01:31:09.126Z,68.25
2024-01-08T01:32:09.145Z,68.19
2024-01-08T01:33:09.203Z,68.21
2024-01-08T01:34:09.127Z,68.25
2024-01-08T01:35:09.122Z,68.24
2024-01-08T01:36:09.097Z,68.22
2024-01-08T01:37:09.063Z,68.28
2024-01-08T01:38:09.103Z,68.21
2024-01-08T01:39:09.044Z,68.12
2024-01-08T01:40:09.028Z,68.03
2024-01-08T01:41:09.083Z,68.08
2024-01-08T01:42:08.999Z,67.91
2024-01-08T01:43:09.011Z,67.89
2024-01-08T01:44:09.001Z,67.92
2024-01-08T01:45:08.976Z,67.82
2024-01-08T01:46:08.975Z,67.78
2024-01-08T01:47:09.001Z,67.98
2024-01-08T01:48:09.040Z,68.01
2024-01-08T01:49:08.993Z,68.06
2024-01-08T01:50:08.962Z,67.84
2024-01-08T01:51:08.926Z,67.93
2024-01-08T01:52:08.949Z,68.13
2024-01-08T01:53:09.045Z,68.05
2024-01-08T01:54:09.050Z,67.96
2024-01-08T01:55:09.074Z,67.96
2024-01-08T01:56:09.103Z,67.78
2024-01-08T01:57:09.073Z,67.68
2024-01-08T01:58:09.144Z,67.62
2024-01-08T01:59:09.268Z,67.75
2024-01-08T02:00:09.182Z,67.80
2024-01-08T02:01:09.252Z,67.92
2024-01-08T02:02:09.262Z,68.08
2024-01-08T02:03:09.302Z,68.20
2024-01-08T02:04:09.624Z,68.27
2024-01-08T02:05:09.364Z,68.22
2024-01-08T02:06:09.572Z,68.26
2024-01-08T02:07:09.348Z,68.43
2024-01-08T02:08:09.413Z,68.44
2024-01-08T02:09:09.462Z,68.26
2024-01-08T02:10:09.459Z,68.04
2024-01-08T02:11:09.562Z,67.95
2024-01-08T02:12:09.582Z,67.87
2024-01-08T02:13:09.594Z,67.87
2024-01-08T02:14:09.614Z,67.84
2024-01-08T02:15:09.574Z,67.61
2024-01-08T02:16:09.604Z,67.58
2024-01-08T02:17:09.622Z,67.61
2024-01-08T02:18:09.670Z,67.89
2024-01-08T02:19:09.610Z,68.03
2024-01-08T02:20:09.655Z,68.06
2024-01-08T02:21:09.570Z,67.96
2024-01-08T02:22:09.554Z,68.01
2024-01-08T02:23:09.594Z,67.87
2024-01-08T02:24:09.544Z,67.73
2024-01-08T02:25:09.537Z,67.91
2024-01-08T02:26:09.596Z,67.90
2024-01-08T02:27:09.499Z,67.93
2024-01-08T02:28:09.505Z,67.83
2024-01-08T02:29:09.551Z,67.69
2024-01-08T02:30:09.568Z,67.80
2024-01-08T02:31:09.618Z,67.67
2024-01-08T02:32:09.614Z,67.47
2024-01-08T02:33:09.623Z,67.45
2024-01-08T02:34:09.710Z,67.59
2024-01-08T02:35:09.744Z,67.66
2024-01-08T02:36:09.690Z,67.91
2024-01-08T02:37:09.710Z,67.80
2024-01-08T02:38:09.718Z,67.65
2024-01-08T02:39:09.665Z,67.57
2024-01-08T02:40:09.652Z,67.40
2024-01-08T02:41:09.737Z,67.30
2024-01-08T02:42:09.622Z,67.20
2024-01-08T02:43:10.372Z,67.23
2024-01-08T02:44:09.674Z,67.19
2024-01-08T02:45:09.622Z,67.07
2024-01-08T02:46:09.581Z,67.05
2024-01-08T02:47:09.599Z,66.91
2024-01-08T02:48:10.330Z,66.87
2024-01-08T02:49:09.563Z,66.83
2024-01-08T02:50:09.577Z,66.89
2024-01-08T02:51:09.584Z,66.82
2024-01-08T02:52:09.577Z,66.82
2024-01-08T02:53:09.679Z,66.85
2024-01-08T02:54:09.590Z,66.72
2024-01-08T02:55:09.580Z,66.85
2024-01-08T02:56:09.609Z,66.92
2024-01-08T02:57:09.600Z,67.13
2024-01-08T02:58:09.671Z,67.42
2024-01-08T02:59:09.760Z,67.41
2024-01-08T03:00:09.698Z,67.58
2024-01-08T03:01:09.777Z,67.81
2024-01-08T03:02:09.784Z,68.17
2024-01-08T03:03:09.793Z,68.29
2024-01-08T03:04:09.913Z,68.38
2024-01-08T03:05:09.862Z,68.21
2024-01-08T03:06:09.863Z,68.20
2024-01-08T03:07:09.828Z,68.25
2024-01-08T03:08:09.860Z,68.22
2024-01-08T03:09:09.817Z,68.28
2024-01-08T03:10:09.820Z,68.21
2024-01-08T03:11:09.872Z,68.34
2024-01-08T03:12:09.822Z,68.51
2024-01-08T03:13:09.831Z,68.62
2024-01-08T03:14:09.872Z,68.86
2024-01-08T03:15:09.846Z,68.93
2024-01-08T03:16:09.879Z,68.75
2024-01-08T03:17:09.898Z,68.60
2024-01-08T03:18:10.149Z,68.39
2024-01-08T03:19:09.932Z,68.44
2024-01-08T03:20:10.269Z,68.42
2024-01-08T03:21:09.908Z,68.50
2024-01-08T03:22:09.954Z,68.63
2024-01-08T03:23:09.988Z,68.76
2024-01-08T03:24:09.973Z,68.81
2024-01-08T03:25:09.936Z,68.92
2024-01-08T03:26:10.057Z,68.89
2024-01-08T03:27:09.954Z,68.78
2024-01-08T03:28:10.403Z,68.73
2024-01-08T03:29:09.988Z,68.83
2024-01-08T03:30:09.977Z,68.70
2024-01-08T03:31:09.980Z,68.71
2024-01-08T03:32:10.022Z,68.73
2024-01-08T03:33:11.127Z,68.66
2024-01-08T03:34:10.019Z,68.73
2024-01-08T03:35:10.041Z,68.62
2024-01-08T03:36:10.075Z,68.55
2024-01-08T03:37:10.072Z,68.54
2024-01-08T03:38:12.206Z,68.53
2024-01-08T03:39:10.094Z,68.45
2024-01-08T03:40:10.107Z,68.52
2024-01-08T03:41:10.135Z,68.52
2024-01-08T03:42:10.135Z,68.56
2024-01-08T03:43:20.583Z,68.50
2024-01-08T03:44:10.163Z,68.61
2024-01-08T03:45:10.118Z,68.69
2024-01-08T03:46:10.128Z,68.81
2024-01-08T03:47:10.131Z,68.94
2024-01-08T03:52:10.117Z,70.85
2024-01-08T03:53:10.127Z,69.86
2024-01-08T03:54:10.293Z,69.59
2024-01-08T03:55:10.059Z,69.46
2024-01-08T03:56:10.104Z,69.40
2024-01-08T03:57:10.070Z,69.26
2024-01-08T03:58:10.076Z,69.08
2024-01-08T03:59:10.129Z,69.23
2024-01-08T04:00:10.087Z,69.16
2024-01-08T04:01:10.095Z,69.13
2024-01-08T04:02:10.120Z,69.18
2024-01-08T04:03:10.230Z,69.30
2024-01-08T04:04:10.094Z,69.09
2024-01-08T04:05:10.259Z,69.14
2024-01-08T04:06:10.315Z,69.29
2024-01-08T04:07:10.151Z,69.37
2024-01-08T04:08:10.470Z,69.27
2024-01-08T04:09:10.161Z,69.30
2024-01-08T04:10:10.177Z,69.07
2024-01-08T04:11:10.222Z,68.99
2024-01-08T04:12:10.189Z,68.98
2024-01-08T04:13:10.201Z,69.07
2024-01-08T04:14:10.251Z,68.73
2024-01-08T04:15:10.211Z,68.83
2024-01-08T04:16:10.223Z,68.85
2024-01-08T04:17:10.248Z,68.72
2024-01-08T04:18:10.369Z,68.67
2024-01-08T04:19:10.346Z,68.65
2024-01-08T04:20:10.289Z,68.60
2024-01-08T04:21:10.227Z,68.50
2024-01-08T04:22:10.243Z,68.53
2024-01-08T04:23:10.266Z,68.69
2024-01-08T04:24:10.240Z,68.76
2024-01-08T04:25:10.243Z,68.87
2024-01-08T04:26:10.298Z,68.90
2024-01-08T04:27:10.264Z,68.60
2024-01-08T04:28:10.282Z,68.32
2024-01-08T04:29:10.307Z,68.21
2024-01-08T04:30:10.319Z,68.19
2024-01-08T04:31:10.321Z,68.23
2024-01-08T04:32:10.403Z,68.34
2024-01-08T04:33:10.454Z,68.20
2024-01-08T04:34:10.475Z,68.29
2024-01-08T04:35:10.493Z,68.44
2024-01-08T04:36:10.508Z,68.56
2024-01-08T04:37:10.518Z,68.51
2024-01-08T04:38:10.571Z,68.46
2024-01-08T04:39:10.546Z,68.66
2024-01-08T04:40:10.547Z,68.75
2024-01-08T04:41:10.606Z,68.69
2024-01-08T04:42:10.579Z,68.71
2024-01-08T04:43:10.617Z,68.64
2024-01-08T04:44:10.744Z,68.60
2024-01-08T04:45:10.601Z,68.59
2024-01-08T04:46:10.626Z,68.74
2024-01-08T04:47:10.672Z,68.84
2024-01-08T04:48:10.747Z,68.90
2024-01-08T04:49:10.808Z,68.95
2024-01-08T04:50:10.753Z,69.15
2024-01-08T04:51:10.714Z,69.25
2024-01-08T04:52:10.736Z,69.29
2024-01-08T04:53:10.739Z,69.21
2024-01-08T04:54:10.756Z,69.21
2024-01-08T04:55:10.755Z,69.18
2024-01-08T04:56:10.865Z,69.10
2024-01-08T04:57:10.783Z,69.18
2024-01-08T04:58:10.802Z,69.22
2024-01-08T04:59:10.845Z,69.21
2024-01-08T05:00:10.876Z,69.29
2024-01-08T05:01:10.973Z,69.50
2024-01-08T05:02:10.957Z,69.65
2024-01-08T05:03:10.961Z,69.54
2024-01-08T05:04:12.994Z,69.45
2024-01-08T05:05:10.999Z,69.53
2024-01-08T05:06:10.985Z,69.44
2024-01-08T05:07:11.029Z,69.36
2024-01-08T05:08:18.786Z,69.70
2024-01-08T05:09:18.710Z,69.51
2024-01-08T05:10:18.695Z,69.41
2024-01-08T05:11:18.691Z,69.60
2024-01-08T05:12:18.653Z,69.71
2024-01-08T05:13:18.626Z,69.68
2024-01-08T05:14:18.681Z,69.67
2024-01-08T05:15:18.656Z,69.53
2024-01-08T05:16:18.572Z,69.64
2024-01-08T05:17:19.893Z,69.62
2024-01-08T05:18:18.696Z,69.60
2024-01-08T05:19:18.564Z,69.37
2024-01-08T05:20:18.525Z,69.38
2024-01-08T05:21:18.524Z,69.62
2024-01-08T05:22:18.562Z,69.64
2024-01-08T05:23:18.691Z,69.69
2024-01-08T05:24:18.614Z,69.71
2024-01-08T05:25:18.590Z,69.70
2024-01-08T05:26:18.606Z,69.65
2024-01-08T05:27:18.575Z,69.55
2024-01-08T05:28:18.623Z,69.46
2024-01-08T05:29:18.708Z,69.46
2024-01-08T05:30:18.625Z,69.52
2024-01-08T05:31:19.282Z,69.56
2024-01-08T05:32:18.631Z,69.58
2024-01-08T05:34:18.604Z,69.65
2024-01-08T05:35:18.580Z,69.63
2024-01-08T05:36:18.555Z,69.66
2024-01-08T05:37:18.528Z,69.66
2024-01-08T05:38:18.570Z,69.65
2024-01-08T05:39:18.499Z,69.70
2024-01-08T05:40:18.440Z,69.63
2024-01-08T05:41:20.218Z,69.66
2024-01-08T05:42:18.411Z,69.61
2024-01-08T05:43:18.419Z,69.54
2024-01-08T05:44:18.414Z,69.54
2024-01-08T05:45:18.443Z,69.52
2024-01-08T05:46:18.447Z,69.57
2024-01-08T05:47:18.586Z,69.59
2024-01-08T05:48:18.695Z,69.71
2024-01-08T05:49:18.567Z,69.86
2024-01-08T05:50:18.664Z,69.68
2024-01-08T05:51:18.580Z,69.52
2024-01-08T05:52:18.600Z,69.42
2024-01-08T05:53:18.614Z,69.33
2024-01-08T05:54:18.624Z,69.45
2024-01-08T05:55:18.688Z,69.38
2024-01-08T05:56:18.742Z,69.49
2024-01-08T05:57:18.722Z,69.65
2024-01-08T05:58:18.752Z,69.61
2024-01-08T05:59:18.810Z,69.74
2024-01-08T06:00:18.794Z,69.86
2024-01-08T06:01:18.886Z,70.04
2024-01-08T06:02:18.916Z,70.22
2024-01-08T06:03:18.922Z,70.33
2024-01-08T06:04:18.897Z,70.50
2024-01-08T06:05:19.008Z,70.57
2024-01-08T06:06:18.914Z,70.45
2024-01-08T06:07:18.878Z,70.46
2024-01-08T06:08:18.868Z,70.56
2024-01-08T06:09:18.805Z,70.58
2024-01-08T06:10:18.805Z,70.41
2024-01-08T06:11:18.801Z,70.32
2024-01-08T06:12:18.746Z,70.20
2024-01-08T06:13:18.712Z,70.09
2024-01-08T06:14:18.771Z,70.29
2024-01-08T06:15:18.702Z,70.54
2024-01-08T06:16:18.707Z,70.59
2024-01-08T06:17:18.680Z,70.68
2024-01-08T06:18:18.717Z,70.82
2024-01-08T06:19:18.707Z,70.80
2024-01-08T06:20:18.639Z,70.84
2024-01-08T06:21:18.624Z,70.63
2024-01-08T06:22:18.613Z,70.58
2024-01-08T06:23:18.637Z,70.48
2024-01-08T06:24:18.561Z,70.49
2024-01-08T06:25:18.552Z,70.48
2024-01-08T06:26:18.662Z,70.51
2024-01-08T06:27:18.540Z,70.73
2024-01-08T06:28:18.569Z,70.84
2024-01-08T06:29:18.537Z,71.00
2024-01-08T06:30:18.566Z,71.08
2024-01-08T06:31:18.484Z,71.29
2024-01-08T06:32:18.523Z,71.44
2024-01-08T06:33:18.566Z,71.53
2024-01-08T06:34:18.527Z,71.75
2024-01-08T06:35:18.537Z,71.66
2024-01-08T06:36:18.454Z,71.59
2024-01-08T06:37:18.477Z,71.43
2024-01-08T06:38:19.317Z,71.68
2024-01-08T06:39:18.403Z,71.43
2024-01-08T06:40:20.613Z,71.20
2024-01-08T06:41:18.522Z,71.17
2024-01-08T06:42:18.440Z,71.13
2024-01-08T06:43:18.429Z,71.02
2024-01-08T06:44:18.435Z,71.23
2024-01-08T06:45:18.417Z,71.20
2024-01-08T06:46:20.159Z,71.26
2024-01-08T06:47:18.488Z,71.26
2024-01-08T06:48:18.496Z,71.18
2024-01-08T06:49:18.491Z,71.26
2024-01-08T06:50:18.383Z,71.17
2024-01-08T06:51:18.362Z,71.16
2024-01-08T06:52:18.295Z,71.09
2024-01-08T06:53:18.335Z,70.98
2024-01-08T06:54:18.238Z,71.05
2024-01-08T06:55:18.263Z,71.01
2024-01-08T06:56:18.409Z,70.99
2024-01-08T06:57:18.284Z,70.96
2024-01-08T06:58:18.306Z,71.01
2024-01-08T06:59:18.367Z,71.13
2024-01-08T07:00:18.358Z,71.35
2024-01-08T07:01:18.441Z,71.65
2024-01-08T07:02:18.429Z,71.90
2024-01-08T07:03:18.632Z,72.05
2024-01-08T07:04:18.472Z,72.17
2024-01-08T07:05:18.689Z,72.25
2024-01-08T07:06:19.122Z,72.20
2024-01-08T07:07:18.598Z,72.20
2024-01-08T07:08:19.349Z,72.19
2024-01-08T07:09:18.766Z,72.21
2024-01-08T07:10:18.647Z,72.21
2024-01-08T07:11:18.753Z,72.19
2024-01-08T07:12:18.677Z,72.09
2024-01-08T07:13:18.736Z,72.01
2024-01-08T07:14:18.758Z,71.86
2024-01-08T07:15:19.298Z,71.69
2024-01-08T07:16:18.750Z,71.57
2024-01-08T07:17:18.908Z,71.27
2024-01-08T07:18:19.000Z,70.89
2024-01-08T07:19:18.888Z,70.70
2024-01-08T07:20:19.365Z,70.46
2024-01-08T07:21:18.741Z,70.29
2024-01-08T07:22:18.711Z,70.20
2024-01-08T07:23:18.697Z,70.36
2024-01-08T07:24:19.302Z,70.31
2024-01-08T07:25:18.615Z,70.29
2024-01-08T07:26:19.415Z,70.17
2024-01-08T07:27:18.542Z,69.99
2024-01-08T07:28:18.513Z,69.96
2024-01-08T07:29:18.510Z,69.90
2024-01-08T07:30:18.554Z,69.65
2024-01-08T07:31:18.441Z,69.74
2024-01-08T07:32:18.541Z,69.71
2024-01-08T07:33:18.521Z,69.84
2024-01-08T07:34:18.440Z,69.79
2024-01-08T07:35:18.528Z,69.82
2024-01-08T07:36:19.429Z,69.67
2024-01-08T07:37:18.361Z,69.67
2024-01-08T07:38:18.809Z,69.62
2024-01-08T07:39:18.290Z,69.35
2024-01-08T07:40:18.294Z,69.19
2024-01-08T07:41:18.370Z,68.93
2024-01-08T07:42:18.373Z,68.79
2024-01-08T07:43:18.636Z,68.52
2024-01-08T07:44:18.385Z,68.50
2024-01-08T07:45:18.351Z,68.34
2024-01-08T07:46:18.379Z,68.27
2024-01-08T07:47:18.356Z,68.41
2024-01-08T07:48:18.434Z,68.48
2024-01-08T07:49:18.382Z,68.49
2024-01-08T07:50:18.282Z,68.41
2024-01-08T07:51:18.216Z,68.36
2024-01-08T07:52:20.716Z,68.20
2024-01-08T07:53:18.214Z,68.24
2024-01-08T07:54:18.080Z,67.83
2024-01-08T07:55:18.043Z,67.93
2024-01-08T07:56:18.042Z,67.75
2024-01-08T07:57:18.016Z,67.72
2024-01-08T07:58:21.936Z,67.77
2024-01-08T07:59:18.995Z,67.51
2024-01-08T08:00:17.961Z,67.51
2024-01-08T08:01:17.882Z,67.55
2024-01-08T08:02:17.936Z,67.43
2024-01-08T08:03:18.392Z,67.31
2024-01-08T08:04:17.841Z,67.24
2024-01-08T08:05:17.933Z,67.11
2024-01-08T08:06:17.824Z,67.23
2024-01-08T08:07:17.693Z,66.86
2024-01-08T08:08:17.908Z,66.92
2024-01-08T08:09:17.634Z,66.89
2024-01-08T08:10:18.699Z,66.59
2024-01-08T08:11:17.621Z,66.17
2024-01-08T08:12:17.822Z,65.50
2024-01-08T08:13:17.589Z,65.43
2024-01-08T08:14:17.626Z,65.59
2024-01-08T08:15:18.305Z,65.85
2024-01-08T08:16:18.377Z,65.84
2024-01-08T08:17:17.644Z,65.72
2024-01-08T08:18:17.779Z,65.52
2024-01-08T08:19:17.597Z,65.07
2024-01-08T08:20:17.802Z,64.91
2024-01-08T08:21:17.596Z,64.95
2024-01-08T08:22:17.575Z,64.60
2024-01-08T08:23:17.623Z,64.51
2024-01-08T08:24:17.578Z,64.50
2024-01-08T08:25:17.578Z,64.29
2024-01-08T08:26:19.969Z,64.13
2024-01-08T08:27:17.563Z,64.24
2024-01-08T08:28:17.576Z,64.12
2024-01-08T08:29:17.524Z,63.99
2024-01-08T08:30:17.526Z,63.86
2024-01-08T08:31:17.448Z,63.81
2024-01-08T08:32:17.454Z,63.46
2024-01-08T08:33:17.748Z,63.27
2024-01-08T08:34:17.438Z,63.26
2024-01-08T08:35:17.498Z,63.22
2024-01-08T08:36:18.094Z,63.28
2024-01-08T08:37:17.291Z,63.62
2024-01-08T08:38:19.867Z,63.72
2024-01-08T08:39:17.451Z,63.59
2024-01-08T08:40:17.464Z,63.55
2024-01-08T08:41:17.477Z,63.69
2024-01-08T08:42:17.480Z,63.87
2024-01-08T08:43:17.449Z,63.97
2024-01-08T08:44:19.556Z,64.05
2024-01-08T08:45:17.452Z,63.94
2024-01-08T08:46:17.438Z,63.78
2024-01-08T08:47:17.629Z,63.87
2024-01-08T08:48:17.521Z,63.96
2024-01-08T08:49:17.505Z,63.74
2024-01-08T08:50:17.789Z,63.64
2024-01-08T08:51:17.546Z,63.15
2024-01-08T08:52:17.591Z,62.74
2024-01-08T08:53:17.664Z,62.65
2024-01-08T08:54:17.587Z,62.43
2024-01-08T08:55:17.782Z,62.71
2024-01-08T08:56:17.682Z,62.80
2024-01-08T08:57:17.593Z,63.02
2024-01-08T08:58:17.565Z,63.09
2024-01-08T08:59:17.605Z,62.95
2024-01-08T09:00:20.707Z,63.18
2024-01-08T09:01:17.524Z,63.42
2024-01-08T09:02:17.486Z,63.31
2024-01-08T09:03:17.437Z,63.47
2024-01-08T09:04:17.422Z,63.46
2024-01-08T09:05:26.005Z,63.53
2024-01-08T09:06:18.362Z,63.85
2024-01-08T09:07:17.373Z,63.76
2024-01-08T09:08:17.259Z,63.69
2024-01-08T09:09:17.208Z,63.48
2024-01-08T09:10:17.156Z,63.25
2024-01-08T09:11:17.165Z,62.71
2024-01-08T09:12:17.045Z,62.30
2024-01-08T09:13:17.029Z,62.31
2024-01-08T09:14:17.070Z,62.26
2024-01-08T09:15:16.909Z,62.10
2024-01-08T09:16:16.874Z,62.10
2024-01-08T09:17:16.888Z,61.79
2024-01-08T09:18:16.940Z,61.64
2024-01-08T09:19:16.902Z,61.27
2024-01-08T09:20:16.732Z,61.23
2024-01-08T09:21:16.660Z,61.09
2024-01-08T09:22:16.688Z,61.08
2024-01-08T09:23:16.723Z,60.96
2024-01-08T09:24:16.650Z,60.69
2024-01-08T09:25:16.631Z,60.52
2024-01-08T09:26:16.617Z,60.20
2024-01-08T09:27:16.514Z,59.85
2024-01-08T09:28:16.459Z,59.61
2024-01-08T09:29:16.426Z,59.37
2024-01-08T09:30:19.804Z,58.99
2024-01-08T09:31:16.309Z,58.64
2024-01-08T09:32:16.829Z,58.07
2024-01-08T09:33:16.327Z,57.46
2024-01-08T09:34:16.876Z,56.74
2024-01-08T09:35:16.252Z,56.74
2024-01-08T09:36:16.657Z,56.70
2024-01-08T09:37:16.183Z,56.69
2024-01-08T09:38:16.112Z,56.58
2024-01-08T09:39:16.072Z,56.89
2024-01-08T09:40:16.015Z,56.73
2024-01-08T09:41:23.379Z,56.74
2024-01-08T09:42:16.997Z,56.45
2024-01-08T09:43:16.089Z,56.20
2024-01-08T09:44:15.948Z,56.03
2024-01-08T09:45:15.769Z,55.87
2024-01-08T09:46:15.739Z,55.07
2024-01-08T09:47:15.615Z,54.68
2024-01-08T09:48:16.835Z,54.36
2024-01-08T09:49:15.453Z,54.21
2024-01-08T09:50:15.482Z,53.59
2024-01-08T09:51:15.311Z,53.26
2024-01-08T09:52:15.225Z,53.07
2024-01-08T09:53:15.203Z,52.89
2024-01-08T09:54:15.163Z,52.59
2024-01-08T09:55:15.036Z,52.54
2024-01-08T09:56:15.034Z,52.80
2024-01-08T09:57:14.931Z,52.81
2024-01-08T09:58:14.940Z,52.97
2024-01-08T09:59:14.987Z,52.49
2024-01-08T10:00:14.737Z,52.52
2024-01-08T10:01:14.766Z,52.07
2024-01-08T10:02:14.679Z,51.82
2024-01-08T10:03:14.539Z,51.84
2024-01-08T10:04:14.509Z,51.59
2024-01-08T10:05:14.501Z,51.26
2024-01-08T10:06:14.457Z,51.09
2024-01-08T10:07:14.274Z,51.06
2024-01-08T10:08:14.279Z,51.24
2024-01-08T10:09:14.232Z,51.44
2024-01-08T10:10:14.216Z,51.60
2024-01-08T10:11:14.171Z,52.14
2024-01-08T10:12:14.127Z,52.41
2024-01-08T10:13:14.080Z,52.76
2024-01-08T10:14:14.054Z,52.94
2024-01-08T10:15:14.182Z,52.95
2024-01-08T10:16:13.948Z,52.62
2024-01-08T10:17:14.025Z,52.38
2024-01-08T10:18:14.066Z,52.20
2024-01-08T10:19:14.129Z,52.01
2024-01-08T10:20:14.552Z,51.67
2024-01-08T10:21:13.970Z,51.09
2024-01-08T10:22:13.897Z,51.03
2024-01-08T10:23:13.846Z,51.02
2024-01-08T10:24:14.192Z,50.97
2024-01-08T10:25:13.712Z,50.41
2024-01-08T10:26:13.828Z,50.09
2024-01-08T10:27:13.866Z,49.82
2024-01-08T10:28:13.567Z,49.93
2024-01-08T10:29:13.530Z,49.94
2024-01-08T10:30:14.382Z,49.78
2024-01-08T10:31:13.454Z,49.53
2024-01-08T10:32:13.405Z,49.25
2024-01-08T10:33:13.520Z,49.05
2024-01-08T10:34:13.314Z,49.01
2024-01-08T10:35:13.375Z,48.73
2024-01-08T10:36:13.204Z,48.72
2024-01-08T10:37:13.127Z,48.95
2024-01-08T10:38:13.109Z,49.05
2024-01-08T10:39:13.054Z,49.11
2024-01-08T10:40:13.008Z,48.96
2024-01-08T10:41:13.041Z,49.09
2024-01-08T10:42:12.944Z,48.84
2024-01-08T10:43:12.862Z,48.82
2024-01-08T10:44:12.786Z,49.05
2024-01-08T10:45:12.758Z,49.48
2024-01-08T10:46:13.387Z,49.62
2024-01-08T10:47:15.085Z,50.03
2024-01-08T10:48:12.669Z,50.21
2024-01-08T10:49:12.438Z,49.99
2024-01-08T10:50:12.305Z,50.08
2024-01-08T10:51:12.263Z,50.35
2024-01-08T10:52:12.246Z,50.94
2024-01-08T10:53:12.170Z,51.06
2024-01-08T10:54:12.030Z,51.26
2024-01-08T10:55:11.902Z,51.66
2024-01-08T10:56:11.838Z,51.59
2024-01-08T10:57:11.776Z,51.85
2024-01-08T10:58:11.662Z,51.92
2024-01-08T10:59:11.739Z,52.16
2024-01-08T11:00:11.689Z,52.26
2024-01-08T11:01:11.482Z,52.02
2024-01-08T11:02:11.501Z,51.66
2024-01-08T11:03:11.407Z,51.52
2024-01-08T11:04:11.258Z,51.37
2024-01-08T11:05:11.339Z,51.56
2024-01-08T11:06:11.992Z,51.52
2024-01-08T11:07:11.031Z,51.69
2024-01-08T11:08:11.018Z,51.95
2024-01-08T11:09:10.898Z,51.81
2024-01-08T11:10:11.178Z,52.05
2024-01-08T11:11:10.770Z,52.28
2024-01-08T11:12:10.660Z,52.38
2024-01-08T11:13:10.569Z,52.13
2024-01-08T11:14:10.550Z,52.16
2024-01-08T11:15:10.560Z,51.85
2024-01-08T11:16:10.516Z,52.19
2024-01-08T11:17:10.353Z,52.38
2024-01-08T11:18:10.364Z,52.53
2024-01-08T11:19:10.383Z,52.46
2024-01-08T11:20:10.264Z,52.15
2024-01-08T11:21:11.831Z,52.29
2024-01-08T11:22:10.222Z,52.33
2024-01-08T11:23:10.153Z,52.37
2024-01-08T11:24:10.120Z,52.28
2024-01-08T11:25:10.131Z,51.83
2024-01-08T11:26:10.217Z,51.43
2024-01-08T11:27:10.002Z,51.57
2024-01-08T11:28:09.830Z,51.64
2024-01-08T11:29:09.912Z,51.91
2024-01-08T11:30:09.913Z,52.00
2024-01-08T11:31:09.731Z,51.73
2024-01-08T11:32:09.750Z,51.54
2024-01-08T11:33:09.747Z,51.43
2024-01-08T11:34:09.535Z,51.34
2024-01-08T11:35:12.072Z,51.14
2024-01-08T11:36:09.332Z,51.35
2024-01-08T11:37:09.229Z,51.79
2024-01-08T11:38:09.179Z,52.13
2024-01-08T11:39:09.055Z,52.72
2024-01-08T11:40:09.093Z,53.15
2024-01-08T11:41:09.864Z,53.15
2024-01-08T11:42:08.928Z,53.35
2024-01-08T11:43:08.794Z,53.55
2024-01-08T11:44:08.740Z,53.42
2024-01-08T11:45:08.637Z,53.82
2024-01-08T11:46:08.633Z,54.22
2024-01-08T11:47:10.531Z,54.51
2024-01-08T11:48:08.580Z,54.61
2024-01-08T11:49:08.439Z,54.51
2024-01-08T11:50:08.375Z,54.70
2024-01-08T11:51:08.173Z,54.93
2024-01-08T11:52:08.126Z,55.06
2024-01-08T11:53:10.549Z,54.91
2024-01-08T11:54:08.019Z,55.22
2024-01-08T11:55:07.925Z,55.31
2024-01-08T11:56:08.175Z,55.80
2024-01-08T11:57:07.816Z,56.11
2024-01-08T11:58:08.343Z,56.25
2024-01-08T11:59:07.787Z,56.24
2024-01-08T12:00:08.326Z,56.56
2024-01-08T12:01:07.648Z,56.75
2024-01-08T12:02:10.460Z,56.77
2024-01-08T12:03:07.579Z,56.69
2024-01-08T12:04:07.498Z,56.79
2024-01-08T12:05:07.518Z,56.63
2024-01-08T12:06:07.501Z,56.79
2024-01-08T12:07:07.250Z,57.16
2024-01-08T12:08:07.327Z,57.48
2024-01-08T12:09:08.896Z,57.80
2024-01-08T12:10:07.233Z,57.74
2024-01-08T12:11:08.108Z,57.91
2024-01-08T12:12:07.062Z,57.99
2024-01-08T12:13:07.104Z,57.86
2024-01-08T12:14:07.741Z,57.57
2024-01-08T12:15:06.983Z,57.75
2024-01-08T12:16:07.810Z,58.09
2024-01-08T12:17:07.229Z,58.48
2024-01-08T12:18:06.920Z,58.90
2024-01-08T12:19:07.173Z,59.11
2024-01-08T12:20:06.790Z,59.18
2024-01-08T12:21:06.822Z,59.26
2024-01-08T12:22:06.743Z,59.11
2024-01-08T12:23:06.713Z,59.23
2024-01-08T12:24:06.678Z,59.33
2024-01-08T12:25:06.703Z,59.23
2024-01-08T12:26:06.813Z,59.12
2024-01-08T12:27:07.322Z,58.59
2024-01-08T12:28:06.714Z,58.38
2024-01-08T12:30:06.815Z,59.31
2024-01-08T12:31:06.724Z,58.61
2024-01-08T12:32:06.779Z,58.15
2024-01-08T12:33:06.694Z,57.89
2024-01-08T12:34:06.622Z,57.96
2024-01-08T12:35:07.155Z,58.18
2024-01-08T12:36:06.501Z,58.30
2024-01-08T12:37:06.539Z,58.10
2024-01-08T12:38:06.372Z,58.27
2024-01-08T12:39:06.295Z,58.27
2024-01-08T12:40:06.335Z,58.14
2024-01-08T12:41:06.444Z,57.59
2024-01-08T12:42:06.149Z,57.35
2024-01-08T12:43:06.099Z,57.07
2024-01-08T12:44:06.034Z,56.89
2024-01-08T12:45:05.984Z,56.61
2024-01-08T12:46:05.990Z,56.29
2024-01-08T12:47:05.881Z,56.51
2024-01-08T12:48:05.838Z,56.51
2024-01-08T12:49:05.781Z,56.56
2024-01-08T12:50:05.788Z,56.50
2024-01-08T12:51:05.591Z,56.11
2024-01-08T12:52:08.595Z,55.86
2024-01-08T12:53:06.543Z,56.09
2024-01-08T12:54:05.446Z,56.48
2024-01-08T12:55:05.409Z,56.61
2024-01-08T12:56:05.386Z,56.66
2024-01-08T12:57:05.293Z,56.53
2024-01-08T12:58:05.265Z,56.32